Terminal Aerodrome Forecast
Issued by NWS Newport/Morehead City, NC

Home | Current Version | Previous Version | Text Only | Print | Product List | Glossary On
Versions: 1 2 3 4 5 6 7 8 9 10 11 12 13 14 15 16 17 18 19 20
000
FTUS42 KMHX 120500
TAFEWN
TAF
KEWN 120531Z 1206/1306 00000KT 2SM BR SKC
      TEMPO 1209/1212 1/2SM FG OVC003
     FM121300 03005KT P6SM SCT030
     FM121700 08007KT P6SM SCT040
     FM130000 17005KT P6SM SKC=

USA.gov is the U.S. government's official web portal to all federal, state and local government web resources and services.